sensor_id;sensor_type;location;lat;lon;timestamp;P1;durP1;ratioP1;P2;durP2;ratioP2
80233;SDS011;69712;42.142;24.766;2023-06-10T00:02:12;7.55;;;5.40;;
80233;SDS011;69712;42.142;24.766;2023-06-10T00:04:38;7.70;;;5.82;;
80233;SDS011;69712;42.142;24.766;2023-06-10T00:07:04;8.57;;;5.90;;
80233;SDS011;69712;42.142;24.766;2023-06-10T00:09:36;8.35;;;5.88;;
80233;SDS011;69712;42.142;24.766;2023-06-10T00:12:05;6.97;;;5.60;;
80233;SDS011;69712;42.142;24.766;2023-06-10T00:14:36;8.45;;;5.63;;
80233;SDS011;69712;42.142;24.766;2023-06-10T00:17:03;7.53;;;5.68;;
80233;SDS011;69712;42.142;24.766;2023-06-10T00:19:29;7.57;;;5.72;;
80233;SDS011;69712;42.142;24.766;2023-06-10T00:21:58;8.55;;;5.40;;
80233;SDS011;69712;42.142;24.766;2023-06-10T00:24:25;7.95;;;5.63;;
80233;SDS011;69712;42.142;24.766;2023-06-10T00:26:53;6.50;;;5.20;;
80233;SDS011;69712;42.142;24.766;2023-06-10T00:29:19;6.97;;;5.35;;
80233;SDS011;69712;42.142;24.766;2023-06-10T00:31:52;8.25;;;5.45;;
80233;SDS011;69712;42.142;24.766;2023-06-10T00:34:25;8.75;;;5.40;;
80233;SDS011;69712;42.142;24.766;2023-06-10T00:36:51;9.27;;;5.88;;
80233;SDS011;69712;42.142;24.766;2023-06-10T00:39:17;7.13;;;5.70;;
80233;SDS011;69712;42.142;24.766;2023-06-10T00:41:42;10.65;;;5.63;;
80233;SDS011;69712;42.142;24.766;2023-06-10T00:44:08;6.80;;;5.63;;
80233;SDS011;69712;42.142;24.766;2023-06-10T00:46:34;7.03;;;5.75;;
80233;SDS011;69712;42.142;24.766;2023-06-10T00:49:00;8.23;;;5.82;;
80233;SDS011;69712;42.142;24.766;2023-06-10T00:51:30;8.38;;;5.68;;
80233;SDS011;69712;42.142;24.766;2023-06-10T00:56:33;8.77;;;6.35;;
80233;SDS011;69712;42.142;24.766;2023-06-10T00:59:00;8.30;;;5.78;;
80233;SDS011;69712;42.142;24.766;2023-06-10T01:01:26;6.30;;;5.53;;
80233;SDS011;69712;42.142;24.766;2023-06-10T01:03:54;7.43;;;5.38;;
80233;SDS011;69712;42.142;24.766;2023-06-10T01:09:02;7.30;;;5.63;;
80233;SDS011;69712;42.142;24.766;2023-06-10T01:12:01;8.25;;;6.10;;
80233;SDS011;69712;42.142;24.766;2023-06-10T01:14:47;9.27;;;5.78;;
80233;SDS011;69712;42.142;24.766;2023-06-10T01:17:14;9.65;;;5.90;;
80233;SDS011;69712;42.142;24.766;2023-06-10T01:19:41;9.13;;;6.15;;
80233;SDS011;69712;42.142;24.766;2023-06-10T01:22:08;11.65;;;6.20;;
80233;SDS011;69712;42.142;24.766;2023-06-10T01:24:38;8.10;;;5.82;;
80233;SDS011;69712;42.142;24.766;2023-06-10T01:27:09;9.05;;;5.88;;
80233;SDS011;69712;42.142;24.766;2023-06-10T01:29:46;11.05;;;6.28;;
80233;SDS011;69712;42.142;24.766;2023-06-10T01:32:33;10.10;;;6.20;;
80233;SDS011;69712;42.142;24.766;2023-06-10T01:35:09;7.05;;;6.25;;
80233;SDS011;69712;42.142;24.766;2023-06-10T01:37:45;8.93;;;6.20;;
80233;SDS011;69712;42.142;24.766;2023-06-10T01:40:12;9.60;;;6.07;;
80233;SDS011;69712;42.142;24.766;2023-06-10T01:42:39;6.80;;;5.63;;
80233;SDS011;69712;42.142;24.766;2023-06-10T01:45:06;8.18;;;5.85;;
80233;SDS011;69712;42.142;24.766;2023-06-10T01:47:32;7.68;;;6.13;;
80233;SDS011;69712;42.142;24.766;2023-06-10T01:49:58;7.88;;;6.05;;
80233;SDS011;69712;42.142;24.766;2023-06-10T01:52:26;7.05;;;5.88;;
80233;SDS011;69712;42.142;24.766;2023-06-10T01:54:53;7.22;;;6.03;;
80233;SDS011;69712;42.142;24.766;2023-06-10T01:57:18;7.65;;;5.90;;
80233;SDS011;69712;42.142;24.766;2023-06-10T01:59:52;6.68;;;5.97;;
80233;SDS011;69712;42.142;24.766;2023-06-10T02:02:18;8.27;;;5.80;;
80233;SDS011;69712;42.142;24.766;2023-06-10T02:04:44;10.57;;;6.22;;
80233;SDS011;69712;42.142;24.766;2023-06-10T02:07:10;8.98;;;6.15;;
80233;SDS011;69712;42.142;24.766;2023-06-10T02:09:37;8.15;;;5.60;;
80233;SDS011;69712;42.142;24.766;2023-06-10T02:12:03;10.25;;;5.88;;
80233;SDS011;69712;42.142;24.766;2023-06-10T02:14:30;7.18;;;6.22;;
80233;SDS011;69712;42.142;24.766;2023-06-10T02:16:57;10.10;;;6.32;;
80233;SDS011;69712;42.142;24.766;2023-06-10T02:19:23;10.25;;;6.07;;
80233;SDS011;69712;42.142;24.766;2023-06-10T02:21:55;8.68;;;6.15;;
80233;SDS011;69712;42.142;24.766;2023-06-10T02:24:20;7.82;;;5.80;;
80233;SDS011;69712;42.142;24.766;2023-06-10T02:26:47;13.60;;;6.10;;
80233;SDS011;69712;42.142;24.766;2023-06-10T02:29:13;7.35;;;6.10;;
80233;SDS011;69712;42.142;24.766;2023-06-10T02:31:39;8.68;;;6.30;;
80233;SDS011;69712;42.142;24.766;2023-06-10T02:34:06;10.45;;;6.22;;
80233;SDS011;69712;42.142;24.766;2023-06-10T02:36:41;8.32;;;6.50;;
80233;SDS011;69712;42.142;24.766;2023-06-10T02:39:07;8.13;;;6.18;;
80233;SDS011;69712;42.142;24.766;2023-06-10T02:41:38;11.73;;;6.28;;
80233;SDS011;69712;42.142;24.766;2023-06-10T02:44:04;7.65;;;6.32;;
80233;SDS011;69712;42.142;24.766;2023-06-10T02:46:32;9.07;;;6.30;;
80233;SDS011;69712;42.142;24.766;2023-06-10T02:49:01;8.10;;;6.03;;
80233;SDS011;69712;42.142;24.766;2023-06-10T02:51:30;7.45;;;5.70;;
80233;SDS011;69712;42.142;24.766;2023-06-10T02:53:55;9.05;;;6.40;;
80233;SDS011;69712;42.142;24.766;2023-06-10T02:56:21;9.13;;;6.15;;
80233;SDS011;69712;42.142;24.766;2023-06-10T02:58:47;9.73;;;6.95;;
80233;SDS011;69712;42.142;24.766;2023-06-10T03:01:17;7.25;;;6.53;;
80233;SDS011;69712;42.142;24.766;2023-06-10T03:03:44;9.95;;;6.32;;
80233;SDS011;69712;42.142;24.766;2023-06-10T03:06:11;9.05;;;7.00;;
80233;SDS011;69712;42.142;24.766;2023-06-10T03:08:39;17.58;;;12.40;;
80233;SDS011;69712;42.142;24.766;2023-06-10T03:11:05;12.15;;;8.07;;
80233;SDS011;69712;42.142;24.766;2023-06-10T03:13:34;10.18;;;7.55;;
80233;SDS011;69712;42.142;24.766;2023-06-10T03:16:03;11.45;;;7.32;;
80233;SDS011;69712;42.142;24.766;2023-06-10T03:18:32;8.00;;;6.45;;
80233;SDS011;69712;42.142;24.766;2023-06-10T03:21:01;9.43;;;6.70;;
80233;SDS011;69712;42.142;24.766;2023-06-10T03:23:30;10.20;;;6.30;;
80233;SDS011;69712;42.142;24.766;2023-06-10T03:25:59;9.07;;;7.13;;
80233;SDS011;69712;42.142;24.766;2023-06-10T03:28:30;10.38;;;8.43;;
80233;SDS011;69712;42.142;24.766;2023-06-10T03:30:56;17.40;;;11.05;;
80233;SDS011;69712;42.142;24.766;2023-06-10T03:33:22;12.05;;;8.52;;
80233;SDS011;69712;42.142;24.766;2023-06-10T03:35:48;9.27;;;7.90;;
80233;SDS011;69712;42.142;24.766;2023-06-10T03:38:13;11.45;;;7.85;;
80233;SDS011;69712;42.142;24.766;2023-06-10T03:40:39;10.77;;;7.50;;
80233;SDS011;69712;42.142;24.766;2023-06-10T03:43:05;11.45;;;7.50;;
80233;SDS011;69712;42.142;24.766;2023-06-10T03:45:31;12.18;;;7.68;;
80233;SDS011;69712;42.142;24.766;2023-06-10T03:47:57;10.90;;;7.80;;
80233;SDS011;69712;42.142;24.766;2023-06-10T03:50:23;8.73;;;7.63;;
80233;SDS011;69712;42.142;24.766;2023-06-10T03:52:50;11.13;;;7.60;;
80233;SDS011;69712;42.142;24.766;2023-06-10T03:55:16;11.18;;;7.75;;
80233;SDS011;69712;42.142;24.766;2023-06-10T03:57:42;10.40;;;7.18;;
80233;SDS011;69712;42.142;24.766;2023-06-10T04:00:08;11.90;;;8.23;;
80233;SDS011;69712;42.142;24.766;2023-06-10T04:02:38;10.50;;;8.20;;
80233;SDS011;69712;42.142;24.766;2023-06-10T04:05:14;11.90;;;8.27;;
80233;SDS011;69712;42.142;24.766;2023-06-10T04:07:41;13.18;;;8.30;;
80233;SDS011;69712;42.142;24.766;2023-06-10T04:10:09;11.95;;;8.23;;
80233;SDS011;69712;42.142;24.766;2023-06-10T04:12:36;15.50;;;8.20;;
80233;SDS011;69712;42.142;24.766;2023-06-10T04:15:03;9.75;;;7.93;;
80233;SDS011;69712;42.142;24.766;2023-06-10T04:17:29;13.18;;;8.13;;
80233;SDS011;69712;42.142;24.766;2023-06-10T04:19:55;10.57;;;7.43;;
80233;SDS011;69712;42.142;24.766;2023-06-10T04:22:21;11.52;;;8.05;;
80233;SDS011;69712;42.142;24.766;2023-06-10T04:24:47;11.13;;;7.68;;
80233;SDS011;69712;42.142;24.766;2023-06-10T04:27:13;9.70;;;8.10;;
80233;SDS011;69712;42.142;24.766;2023-06-10T04:29:39;12.50;;;8.23;;
80233;SDS011;69712;42.142;24.766;2023-06-10T04:32:05;12.85;;;8.30;;
80233;SDS011;69712;42.142;24.766;2023-06-10T04:34:34;17.98;;;12.00;;
80233;SDS011;69712;42.142;24.766;2023-06-10T04:37:01;12.55;;;7.88;;
80233;SDS011;69712;42.142;24.766;2023-06-10T04:39:26;14.07;;;8.57;;
80233;SDS011;69712;42.142;24.766;2023-06-10T04:41:52;11.15;;;8.27;;
80233;SDS011;69712;42.142;24.766;2023-06-10T04:44:18;9.95;;;8.10;;
80233;SDS011;69712;42.142;24.766;2023-06-10T04:46:44;11.95;;;8.02;;
80233;SDS011;69712;42.142;24.766;2023-06-10T04:49:10;15.18;;;8.27;;
80233;SDS011;69712;42.142;24.766;2023-06-10T04:51:39;15.38;;;8.63;;
80233;SDS011;69712;42.142;24.766;2023-06-10T04:54:05;11.35;;;8.30;;
80233;SDS011;69712;42.142;24.766;2023-06-10T04:56:31;14.82;;;8.70;;
80233;SDS011;69712;42.142;24.766;2023-06-10T04:58:57;11.65;;;8.52;;
80233;SDS011;69712;42.142;24.766;2023-06-10T05:01:23;16.00;;;10.82;;
80233;SDS011;69712;42.142;24.766;2023-06-10T05:03:49;12.68;;;8.77;;
80233;SDS011;69712;42.142;24.766;2023-06-10T05:06:15;12.65;;;8.35;;
80233;SDS011;69712;42.142;24.766;2023-06-10T05:08:40;11.80;;;7.72;;
80233;SDS011;69712;42.142;24.766;2023-06-10T05:11:06;14.63;;;8.23;;
80233;SDS011;69712;42.142;24.766;2023-06-10T05:13:32;14.20;;;8.52;;
80233;SDS011;69712;42.142;24.766;2023-06-10T05:15:58;12.35;;;9.07;;
80233;SDS011;69712;42.142;24.766;2023-06-10T05:18:23;10.93;;;8.30;;
80233;SDS011;69712;42.142;24.766;2023-06-10T05:20:49;14.05;;;8.95;;
80233;SDS011;69712;42.142;24.766;2023-06-10T05:23:15;13.02;;;8.18;;
80233;SDS011;69712;42.142;24.766;2023-06-10T05:25:41;11.32;;;8.63;;
80233;SDS011;69712;42.142;24.766;2023-06-10T05:28:07;11.65;;;8.35;;
80233;SDS011;69712;42.142;24.766;2023-06-10T05:30:35;12.88;;;8.40;;
80233;SDS011;69712;42.142;24.766;2023-06-10T05:33:01;13.70;;;8.27;;
80233;SDS011;69712;42.142;24.766;2023-06-10T05:35:28;11.68;;;8.00;;
80233;SDS011;69712;42.142;24.766;2023-06-10T05:37:53;13.88;;;8.32;;
80233;SDS011;69712;42.142;24.766;2023-06-10T05:40:19;11.77;;;8.55;;
80233;SDS011;69712;42.142;24.766;2023-06-10T05:42:45;12.20;;;8.35;;
80233;SDS011;69712;42.142;24.766;2023-06-10T05:45:11;13.43;;;8.05;;
80233;SDS011;69712;42.142;24.766;2023-06-10T05:47:36;15.35;;;8.55;;
80233;SDS011;69712;42.142;24.766;2023-06-10T05:50:02;13.07;;;8.30;;
80233;SDS011;69712;42.142;24.766;2023-06-10T05:52:32;14.55;;;8.40;;
80233;SDS011;69712;42.142;24.766;2023-06-10T05:54:58;15.75;;;8.77;;
80233;SDS011;69712;42.142;24.766;2023-06-10T05:57:24;13.85;;;9.05;;
80233;SDS011;69712;42.142;24.766;2023-06-10T05:59:51;13.63;;;9.05;;
80233;SDS011;69712;42.142;24.766;2023-06-10T06:02:17;16.80;;;8.70;;
80233;SDS011;69712;42.142;24.766;2023-06-10T06:04:42;12.48;;;7.95;;
80233;SDS011;69712;42.142;24.766;2023-06-10T06:07:08;13.13;;;7.70;;
80233;SDS011;69712;42.142;24.766;2023-06-10T06:09:34;9.27;;;7.28;;
80233;SDS011;69712;42.142;24.766;2023-06-10T06:12:00;7.95;;;6.90;;
80233;SDS011;69712;42.142;24.766;2023-06-10T06:14:25;10.00;;;6.82;;
80233;SDS011;69712;42.142;24.766;2023-06-10T06:16:51;11.57;;;7.13;;
80233;SDS011;69712;42.142;24.766;2023-06-10T06:19:17;10.68;;;7.05;;
80233;SDS011;69712;42.142;24.766;2023-06-10T06:21:43;10.68;;;6.72;;
80233;SDS011;69712;42.142;24.766;2023-06-10T06:24:08;11.20;;;6.60;;
80233;SDS011;69712;42.142;24.766;2023-06-10T06:26:34;7.97;;;6.78;;
80233;SDS011;69712;42.142;24.766;2023-06-10T06:29:00;9.80;;;6.90;;
80233;SDS011;69712;42.142;24.766;2023-06-10T06:31:25;10.27;;;6.78;;
80233;SDS011;69712;42.142;24.766;2023-06-10T06:33:51;10.48;;;6.90;;
80233;SDS011;69712;42.142;24.766;2023-06-10T06:36:17;11.65;;;8.43;;
80233;SDS011;69712;42.142;24.766;2023-06-10T06:38:43;11.95;;;7.95;;
80233;SDS011;69712;42.142;24.766;2023-06-10T06:41:08;12.45;;;7.57;;
80233;SDS011;69712;42.142;24.766;2023-06-10T06:43:34;9.68;;;7.30;;
80233;SDS011;69712;42.142;24.766;2023-06-10T06:46:00;13.55;;;7.38;;
80233;SDS011;69712;42.142;24.766;2023-06-10T06:48:25;11.15;;;7.22;;
80233;SDS011;69712;42.142;24.766;2023-06-10T06:50:51;10.60;;;7.20;;
80233;SDS011;69712;42.142;24.766;2023-06-10T06:53:17;9.20;;;7.13;;
80233;SDS011;69712;42.142;24.766;2023-06-10T06:55:42;9.20;;;6.40;;
80233;SDS011;69712;42.142;24.766;2023-06-10T06:58:08;8.98;;;6.57;;
80233;SDS011;69712;42.142;24.766;2023-06-10T07:00:34;11.05;;;6.57;;
80233;SDS011;69712;42.142;24.766;2023-06-10T07:02:59;8.70;;;6.00;;
80233;SDS011;69712;42.142;24.766;2023-06-10T07:05:25;11.18;;;6.50;;
80233;SDS011;69712;42.142;24.766;2023-06-10T07:07:52;10.95;;;6.55;;
80233;SDS011;69712;42.142;24.766;2023-06-10T07:10:21;8.10;;;6.60;;
80233;SDS011;69712;42.142;24.766;2023-06-10T07:12:48;10.63;;;6.50;;
80233;SDS011;69712;42.142;24.766;2023-06-10T07:15:14;11.38;;;6.70;;
80233;SDS011;69712;42.142;24.766;2023-06-10T07:17:39;10.40;;;6.50;;
80233;SDS011;69712;42.142;24.766;2023-06-10T07:20:05;13.20;;;6.82;;
80233;SDS011;69712;42.142;24.766;2023-06-10T07:22:31;11.68;;;7.30;;
80233;SDS011;69712;42.142;24.766;2023-06-10T07:24:57;10.52;;;6.45;;
80233;SDS011;69712;42.142;24.766;2023-06-10T07:27:23;12.20;;;6.53;;
80233;SDS011;69712;42.142;24.766;2023-06-10T07:29:50;12.23;;;6.93;;
80233;SDS011;69712;42.142;24.766;2023-06-10T07:32:16;11.90;;;7.88;;
80233;SDS011;69712;42.142;24.766;2023-06-10T07:34:42;16.60;;;7.18;;
80233;SDS011;69712;42.142;24.766;2023-06-10T07:37:08;10.65;;;6.53;;
80233;SDS011;69712;42.142;24.766;2023-06-10T07:39:34;12.13;;;6.78;;
80233;SDS011;69712;42.142;24.766;2023-06-10T07:42:00;17.38;;;10.82;;
80233;SDS011;69712;42.142;24.766;2023-06-10T07:44:26;12.10;;;6.32;;
80233;SDS011;69712;42.142;24.766;2023-06-10T07:46:51;10.10;;;6.90;;
80233;SDS011;69712;42.142;24.766;2023-06-10T07:49:17;11.68;;;5.97;;
80233;SDS011;69712;42.142;24.766;2023-06-10T07:51:43;10.13;;;5.80;;
80233;SDS011;69712;42.142;24.766;2023-06-10T07:54:08;10.38;;;5.60;;
80233;SDS011;69712;42.142;24.766;2023-06-10T07:56:34;8.40;;;5.90;;
80233;SDS011;69712;42.142;24.766;2023-06-10T07:59:00;7.15;;;5.63;;
80233;SDS011;69712;42.142;24.766;2023-06-10T08:01:26;12.63;;;6.00;;
80233;SDS011;69712;42.142;24.766;2023-06-10T08:03:51;13.23;;;5.70;;
80233;SDS011;69712;42.142;24.766;2023-06-10T08:06:17;8.77;;;5.95;;
80233;SDS011;69712;42.142;24.766;2023-06-10T08:08:43;11.45;;;5.57;;
80233;SDS011;69712;42.142;24.766;2023-06-10T08:11:10;8.75;;;5.72;;
80233;SDS011;69712;42.142;24.766;2023-06-10T08:13:36;8.05;;;5.40;;
80233;SDS011;69712;42.142;24.766;2023-06-10T08:16:02;11.32;;;5.13;;
80233;SDS011;69712;42.142;24.766;2023-06-10T08:18:28;8.85;;;5.10;;
80233;SDS011;69712;42.142;24.766;2023-06-10T08:20:54;12.15;;;5.55;;
80233;SDS011;69712;42.142;24.766;2023-06-10T08:23:20;8.77;;;5.35;;
80233;SDS011;69712;42.142;24.766;2023-06-10T08:25:46;11.07;;;5.35;;
80233;SDS011;69712;42.142;24.766;2023-06-10T08:28:11;10.88;;;5.50;;
80233;SDS011;69712;42.142;24.766;2023-06-10T08:30:37;8.88;;;5.45;;
80233;SDS011;69712;42.142;24.766;2023-06-10T08:33:03;7.72;;;5.03;;
80233;SDS011;69712;42.142;24.766;2023-06-10T08:35:29;10.52;;;5.80;;
80233;SDS011;69712;42.142;24.766;2023-06-10T08:37:55;11.77;;;5.65;;
80233;SDS011;69712;42.142;24.766;2023-06-10T08:40:20;6.45;;;5.70;;
80233;SDS011;69712;42.142;24.766;2023-06-10T08:42:53;8.63;;;5.80;;
80233;SDS011;69712;42.142;24.766;2023-06-10T08:45:30;6.60;;;5.32;;
80233;SDS011;69712;42.142;24.766;2023-06-10T08:47:57;7.68;;;5.45;;
80233;SDS011;69712;42.142;24.766;2023-06-10T08:50:24;8.75;;;5.40;;
80233;SDS011;69712;42.142;24.766;2023-06-10T08:52:53;7.63;;;5.57;;
80233;SDS011;69712;42.142;24.766;2023-06-10T08:55:23;10.35;;;5.95;;
80233;SDS011;69712;42.142;24.766;2023-06-10T08:57:55;8.07;;;5.05;;
80233;SDS011;69712;42.142;24.766;2023-06-10T09:00:21;11.95;;;5.07;;
80233;SDS011;69712;42.142;24.766;2023-06-10T09:02:48;6.18;;;5.03;;
80233;SDS011;69712;42.142;24.766;2023-06-10T09:05:15;8.68;;;4.90;;
80233;SDS011;69712;42.142;24.766;2023-06-10T09:07:41;10.43;;;6.25;;
80233;SDS011;69712;42.142;24.766;2023-06-10T09:10:07;12.60;;;9.68;;
80233;SDS011;69712;42.142;24.766;2023-06-10T09:12:34;10.80;;;7.00;;
80233;SDS011;69712;42.142;24.766;2023-06-10T09:15:00;6.65;;;5.03;;
80233;SDS011;69712;42.142;24.766;2023-06-10T09:17:27;5.47;;;4.53;;
80233;SDS011;69712;42.142;24.766;2023-06-10T09:19:53;9.73;;;4.38;;
80233;SDS011;69712;42.142;24.766;2023-06-10T09:22:23;7.60;;;4.40;;
80233;SDS011;69712;42.142;24.766;2023-06-10T09:24:51;7.15;;;4.47;;
80233;SDS011;69712;42.142;24.766;2023-06-10T09:27:29;7.22;;;4.05;;
80233;SDS011;69712;42.142;24.766;2023-06-10T09:29:57;5.78;;;4.25;;
80233;SDS011;69712;42.142;24.766;2023-06-10T09:32:23;7.75;;;4.30;;
80233;SDS011;69712;42.142;24.766;2023-06-10T09:34:49;8.13;;;4.40;;
80233;SDS011;69712;42.142;24.766;2023-06-10T09:37:21;5.57;;;4.40;;
80233;SDS011;69712;42.142;24.766;2023-06-10T09:40:07;9.32;;;4.25;;
80233;SDS011;69712;42.142;24.766;2023-06-10T09:42:36;6.20;;;4.60;;
80233;SDS011;69712;42.142;24.766;2023-06-10T09:45:05;6.78;;;4.55;;
80233;SDS011;69712;42.142;24.766;2023-06-10T09:47:32;5.90;;;4.63;;
80233;SDS011;69712;42.142;24.766;2023-06-10T09:49:57;6.03;;;4.70;;
80233;SDS011;69712;42.142;24.766;2023-06-10T09:52:24;8.07;;;4.50;;
80233;SDS011;69712;42.142;24.766;2023-06-10T09:54:51;7.65;;;4.90;;
80233;SDS011;69712;42.142;24.766;2023-06-10T09:57:17;13.80;;;4.95;;
80233;SDS011;69712;42.142;24.766;2023-06-10T09:59:44;8.38;;;4.70;;
80233;SDS011;69712;42.142;24.766;2023-06-10T10:02:16;11.70;;;4.80;;
80233;SDS011;69712;42.142;24.766;2023-06-10T10:07:09;10.20;;;4.95;;
80233;SDS011;69712;42.142;24.766;2023-06-10T10:09:39;6.75;;;4.85;;
80233;SDS011;69712;42.142;24.766;2023-06-10T10:12:10;9.23;;;4.78;;
80233;SDS011;69712;42.142;24.766;2023-06-10T10:14:37;8.52;;;5.03;;
80233;SDS011;69712;42.142;24.766;2023-06-10T10:17:04;10.35;;;4.85;;
80233;SDS011;69712;42.142;24.766;2023-06-10T10:19:35;8.90;;;4.97;;
80233;SDS011;69712;42.142;24.766;2023-06-10T10:22:08;7.25;;;4.57;;
80233;SDS011;69712;42.142;24.766;2023-06-10T10:24:39;9.13;;;6.90;;
80233;SDS011;69712;42.142;24.766;2023-06-10T10:27:14;8.77;;;5.80;;
80233;SDS011;69712;42.142;24.766;2023-06-10T10:32:12;10.55;;;5.22;;
80233;SDS011;69712;42.142;24.766;2023-06-10T10:37:19;7.65;;;5.53;;
80233;SDS011;69712;42.142;24.766;2023-06-10T10:39:45;9.40;;;5.18;;
80233;SDS011;69712;42.142;24.766;2023-06-10T10:42:11;5.75;;;4.53;;
80233;SDS011;69712;42.142;24.766;2023-06-10T10:44:38;6.57;;;4.75;;
80233;SDS011;69712;42.142;24.766;2023-06-10T10:47:05;5.82;;;4.53;;
80233;SDS011;69712;42.142;24.766;2023-06-10T10:49:33;6.95;;;5.25;;
80233;SDS011;69712;42.142;24.766;2023-06-10T10:52:02;7.40;;;5.13;;
80233;SDS011;69712;42.142;24.766;2023-06-10T10:54:34;13.93;;;4.90;;
80233;SDS011;69712;42.142;24.766;2023-06-10T10:59:44;7.43;;;5.38;;
80233;SDS011;69712;42.142;24.766;2023-06-10T11:02:15;6.75;;;4.93;;
80233;SDS011;69712;42.142;24.766;2023-06-10T11:04:44;7.97;;;5.30;;
80233;SDS011;69712;42.142;24.766;2023-06-10T11:07:13;6.63;;;5.28;;
80233;SDS011;69712;42.142;24.766;2023-06-10T11:09:58;7.75;;;5.38;;
80233;SDS011;69712;42.142;24.766;2023-06-10T11:12:40;9.80;;;5.00;;
80233;SDS011;69712;42.142;24.766;2023-06-10T11:15:07;7.25;;;5.20;;
80233;SDS011;69712;42.142;24.766;2023-06-10T11:17:33;7.57;;;5.03;;
80233;SDS011;69712;42.142;24.766;2023-06-10T11:19:59;8.63;;;4.82;;
80233;SDS011;69712;42.142;24.766;2023-06-10T11:22:25;8.82;;;5.10;;
80233;SDS011;69712;42.142;24.766;2023-06-10T11:24:51;7.43;;;5.05;;
80233;SDS011;69712;42.142;24.766;2023-06-10T11:29:58;8.63;;;4.50;;
80233;SDS011;69712;42.142;24.766;2023-06-10T11:32:45;8.30;;;4.60;;
80233;SDS011;69712;42.142;24.766;2023-06-10T11:37:43;7.47;;;4.55;;
80233;SDS011;69712;42.142;24.766;2023-06-10T11:40:10;9.43;;;4.50;;
80233;SDS011;69712;42.142;24.766;2023-06-10T11:42:42;7.72;;;4.38;;
80233;SDS011;69712;42.142;24.766;2023-06-10T11:45:09;5.43;;;4.20;;
80233;SDS011;69712;42.142;24.766;2023-06-10T11:47:35;6.38;;;3.88;;
80233;SDS011;69712;42.142;24.766;2023-06-10T11:50:00;6.63;;;4.18;;
80233;SDS011;69712;42.142;24.766;2023-06-10T11:52:30;6.40;;;4.38;;
80233;SDS011;69712;42.142;24.766;2023-06-10T11:55:04;4.65;;;4.13;;
80233;SDS011;69712;42.142;24.766;2023-06-10T11:57:33;4.85;;;4.00;;
80233;SDS011;69712;42.142;24.766;2023-06-10T12:00:06;6.70;;;4.30;;
80233;SDS011;69712;42.142;24.766;2023-06-10T12:02:32;10.57;;;4.40;;
80233;SDS011;69712;42.142;24.766;2023-06-10T12:05:09;4.82;;;4.32;;
80233;SDS011;69712;42.142;24.766;2023-06-10T12:07:36;6.45;;;4.30;;
80233;SDS011;69712;42.142;24.766;2023-06-10T12:10:01;6.70;;;4.15;;
80233;SDS011;69712;42.142;24.766;2023-06-10T12:12:27;6.03;;;4.38;;
80233;SDS011;69712;42.142;24.766;2023-06-10T12:14:54;5.05;;;4.40;;
80233;SDS011;69712;42.142;24.766;2023-06-10T12:19:56;9.10;;;5.38;;
80233;SDS011;69712;42.142;24.766;2023-06-10T12:22:22;8.45;;;4.78;;
80233;SDS011;69712;42.142;24.766;2023-06-10T12:24:59;8.65;;;5.65;;
80233;SDS011;69712;42.142;24.766;2023-06-10T12:27:27;12.18;;;5.63;;
80233;SDS011;69712;42.142;24.766;2023-06-10T12:29:54;8.02;;;5.07;;
80233;SDS011;69712;42.142;24.766;2023-06-10T12:32:34;12.77;;;5.30;;
80233;SDS011;69712;42.142;24.766;2023-06-10T12:35:05;10.52;;;5.50;;
80233;SDS011;69712;42.142;24.766;2023-06-10T12:37:31;9.85;;;5.65;;
80233;SDS011;69712;42.142;24.766;2023-06-10T12:39:59;9.27;;;5.30;;
80233;SDS011;69712;42.142;24.766;2023-06-10T12:42:28;8.63;;;5.65;;
80233;SDS011;69712;42.142;24.766;2023-06-10T12:44:55;5.93;;;5.10;;
80233;SDS011;69712;42.142;24.766;2023-06-10T12:47:31;10.55;;;5.57;;
80233;SDS011;69712;42.142;24.766;2023-06-10T12:50:03;8.27;;;5.22;;
80233;SDS011;69712;42.142;24.766;2023-06-10T12:52:29;7.93;;;5.50;;
80233;SDS011;69712;42.142;24.766;2023-06-10T12:54:55;8.20;;;5.28;;
80233;SDS011;69712;42.142;24.766;2023-06-10T12:57:21;9.02;;;5.30;;
80233;SDS011;69712;42.142;24.766;2023-06-10T12:59:47;7.78;;;4.95;;
80233;SDS011;69712;42.142;24.766;2023-06-10T13:02:22;13.18;;;5.70;;
80233;SDS011;69712;42.142;24.766;2023-06-10T13:04:49;10.38;;;5.40;;
80233;SDS011;69712;42.142;24.766;2023-06-10T13:07:16;9.30;;;4.80;;
80233;SDS011;69712;42.142;24.766;2023-06-10T13:09:42;11.52;;;10.32;;
80233;SDS011;69712;42.142;24.766;2023-06-10T13:12:09;8.50;;;6.00;;
80233;SDS011;69712;42.142;24.766;2023-06-10T13:14:35;8.07;;;5.00;;
80233;SDS011;69712;42.142;24.766;2023-06-10T13:17:03;8.65;;;4.53;;
80233;SDS011;69712;42.142;24.766;2023-06-10T13:19:30;11.65;;;5.20;;
80233;SDS011;69712;42.142;24.766;2023-06-10T13:21:57;8.70;;;4.53;;
80233;SDS011;69712;42.142;24.766;2023-06-10T13:24:23;6.70;;;5.03;;
80233;SDS011;69712;42.142;24.766;2023-06-10T13:26:48;9.32;;;4.50;;
80233;SDS011;69712;42.142;24.766;2023-06-10T13:29:16;7.38;;;4.85;;
80233;SDS011;69712;42.142;24.766;2023-06-10T13:31:41;8.27;;;4.30;;
80233;SDS011;69712;42.142;24.766;2023-06-10T13:34:07;6.55;;;4.50;;
80233;SDS011;69712;42.142;24.766;2023-06-10T13:36:33;9.30;;;5.10;;
80233;SDS011;69712;42.142;24.766;2023-06-10T13:38:59;11.15;;;5.05;;
80233;SDS011;69712;42.142;24.766;2023-06-10T13:41:24;6.72;;;4.68;;
80233;SDS011;69712;42.142;24.766;2023-06-10T13:43:53;6.97;;;4.45;;
80233;SDS011;69712;42.142;24.766;2023-06-10T13:46:19;7.07;;;4.90;;
80233;SDS011;69712;42.142;24.766;2023-06-10T13:48:46;10.77;;;4.57;;
80233;SDS011;69712;42.142;24.766;2023-06-10T13:51:12;7.05;;;4.80;;
80233;SDS011;69712;42.142;24.766;2023-06-10T13:53:38;9.18;;;4.75;;
80233;SDS011;69712;42.142;24.766;2023-06-10T13:56:04;7.93;;;4.75;;
80233;SDS011;69712;42.142;24.766;2023-06-10T13:58:31;7.57;;;5.30;;
80233;SDS011;69712;42.142;24.766;2023-06-10T14:00:56;8.98;;;5.00;;
80233;SDS011;69712;42.142;24.766;2023-06-10T14:03:23;9.23;;;7.20;;
80233;SDS011;69712;42.142;24.766;2023-06-10T14:05:49;6.28;;;5.60;;
80233;SDS011;69712;42.142;24.766;2023-06-10T14:08:15;9.15;;;5.32;;
80233;SDS011;69712;42.142;24.766;2023-06-10T14:10:41;7.35;;;4.82;;
80233;SDS011;69712;42.142;24.766;2023-06-10T14:13:07;10.23;;;7.68;;
80233;SDS011;69712;42.142;24.766;2023-06-10T14:15:33;7.85;;;6.05;;
80233;SDS011;69712;42.142;24.766;2023-06-10T14:18:00;7.78;;;4.85;;
80233;SDS011;69712;42.142;24.766;2023-06-10T14:20:26;6.28;;;5.05;;
80233;SDS011;69712;42.142;24.766;2023-06-10T14:22:56;5.72;;;4.78;;
80233;SDS011;69712;42.142;24.766;2023-06-10T14:25:23;6.50;;;4.90;;
80233;SDS011;69712;42.142;24.766;2023-06-10T14:27:49;6.25;;;4.60;;
80233;SDS011;69712;42.142;24.766;2023-06-10T14:30:14;8.40;;;5.03;;
80233;SDS011;69712;42.142;24.766;2023-06-10T14:32:40;5.95;;;4.70;;
80233;SDS011;69712;42.142;24.766;2023-06-10T14:35:06;9.07;;;4.65;;
80233;SDS011;69712;42.142;24.766;2023-06-10T14:37:32;5.80;;;4.43;;
80233;SDS011;69712;42.142;24.766;2023-06-10T14:39:58;9.68;;;4.90;;
80233;SDS011;69712;42.142;24.766;2023-06-10T14:42:23;6.10;;;4.70;;
80233;SDS011;69712;42.142;24.766;2023-06-10T14:44:54;7.28;;;4.90;;
80233;SDS011;69712;42.142;24.766;2023-06-10T14:47:20;6.68;;;4.95;;
80233;SDS011;69712;42.142;24.766;2023-06-10T14:49:45;6.93;;;4.82;;
80233;SDS011;69712;42.142;24.766;2023-06-10T14:52:11;5.15;;;4.43;;
80233;SDS011;69712;42.142;24.766;2023-06-10T14:54:37;8.93;;;4.32;;